Main page
Satellite images 10-day forecastsClimateMarine weather Cyclones Lightning AirportsFAQ Newsletter About
Weather : Europe Africa North America South America Asia Australia-Oceania Others
Languages Contact

Tehran, Iran

Mehrabad International Airport

latitude: 35-41N, longitude: 051-21E, elevation: 1204 m


METAR: OIII 011900Z 31004KT 9999 FEW040 11/M08 Q1011 A2986 NOSIG
TAF: OIII 011800Z 0118/0224 27006MPS 8000 FEW040 SCT100 TEMPO 0118/0124 33008MPS TEMPO 0206/0209 4000 HZ

Time: 22:45 (19:15 UTC)

Current weather observation

The report was made 15 minutes ago, at 19:00 UTC
Wind 4 kt from the Northwest
Temperature 11°C
Humidity 25%
Pressure 1011 hPa
Visibility 10 km or more
Few clouds at a height of 4000 ft

Change units

Forecast

The report was made 1 hour and 15 minutes ago, at 18:00 UTC
Forecast valid from 01 at 18 UTC to 02 at 24 UTC
Wind 12 kt from the West
Visibility: 8000 m
Few clouds at a height of 4000 ft
Scattered clouds at a height of 10000 ft
Temporary
from 01 at 18 UTC to 01 at 24 UTC
Wind 16 kt from the North/Northwest
Temporary
from 02 at 06 UTC to 02 at 09 UTC
Visibility: 4000 m
haze
The information on this site is subject to a disclaimer
Weather : Europe Africa North America South America Asia Australia-Oceania Others
Satellite images 10-day forecastsClimateMarine weather Cyclones Lightning AirportsFAQ Languages Contact Newsletter About